Time;durP1;ratioP1;P1;durP2;ratioP2;P2;SDS_P1;SDS_P2;PMS_P1;PMS_P2;Temp;Humidity;BMP_temperature;BMP_pressure;BME280_temperature;BME280_humidity;BME280_pressure;Samples;Min_cycle;Max_cycle;Signal;HPM_P1;HPM_P2
2022/07/01 00:00:53;;;;;;;10.20;5.82;;;;;;;22.65;72.40;100775.50;5034799;28;20467;-55
2022/07/01 00:03:22;;;;;;;7.97;5.63;;;;;;;22.64;72.48;100763.22;5036564;28;20123;-51
2022/07/01 00:06:00;;;;;;;11.27;6.10;;;;;;;22.64;72.53;100771.16;5034236;28;20045;-52
2022/07/01 00:08:30;;;;;;;9.02;6.13;;;;;;;22.62;72.62;100777.47;5033430;28;20049;-52
2022/07/01 00:10:58;;;;;;;8.32;6.13;;;;;;;22.60;72.67;100780.19;5036275;28;20158;-54
2022/07/01 00:13:40;;;;;;;8.68;6.25;;;;;;;22.60;72.60;100785.47;5034053;28;20060;-54
2022/07/01 00:16:10;;;;;;;8.52;5.85;;;;;;;22.59;72.59;100782.94;5033159;28;20494;-55
2022/07/01 00:18:39;;;;;;;10.13;6.70;;;;;;;22.57;72.62;100788.31;5033598;28;20128;-53
2022/07/01 00:21:10;;;;;;;9.25;6.72;;;;;;;22.56;72.70;100791.88;5032646;28;20068;-55
2022/07/01 00:23:46;;;;;;;7.65;5.95;;;;;;;22.55;72.84;100791.97;5033282;28;20046;-54
2022/07/01 00:26:16;;;;;;;8.23;6.50;;;;;;;22.53;72.89;100794.69;5033554;28;20041;-54
2022/07/01 00:28:44;;;;;;;10.05;6.28;;;;;;;22.51;72.82;100793.94;5034609;28;20050;-52
2022/07/01 00:33:55;;;;;;;11.27;7.32;;;;;;;22.48;72.97;100817.03;5034820;28;20057;-52
2022/07/01 00:39:05;;;;;;;9.05;6.35;;;;;;;22.44;73.14;100816.34;5027338;28;20474;-55
2022/07/01 00:41:33;;;;;;;13.93;6.95;;;;;;;22.43;73.03;100825.22;5032573;28;20053;-52
2022/07/01 00:44:09;;;;;;;10.95;6.53;;;;;;;22.42;73.08;100833.22;5032906;28;20057;-54
2022/07/01 00:46:45;;;;;;;10.30;5.88;;;;;;;22.40;73.23;100837.75;5031674;28;20045;-52
2022/07/01 00:49:22;;;;;;;11.75;7.03;;;;;;;22.39;73.24;100836.03;5032964;28;20059;-52
2022/07/01 00:51:49;;;;;;;13.10;7.30;;;;;;;22.36;73.20;100837.88;5034685;28;20466;-55
2022/07/01 00:54:18;;;;;;;12.88;7.57;;;;;;;22.35;73.20;100837.97;5033966;28;20087;-55
2022/07/01 00:56:48;;;;;;;15.43;8.15;;;;;;;22.33;73.44;100834.56;5037567;28;20489;-54
2022/07/01 00:59:19;;;;;;;15.45;7.95;;;;;;;22.31;73.49;100831.16;5032938;28;20084;-54
2022/07/01 01:01:49;;;;;;;11.43;7.60;;;;;;;22.29;73.50;100822.47;5032206;28;20086;-55
2022/07/01 01:04:20;;;;;;;13.13;7.72;;;;;;;22.26;73.55;100812.09;5030472;28;20509;-54
2022/07/01 01:06:49;;;;;;;10.82;7.65;;;;;;;22.24;73.69;100817.44;5032163;28;20049;-55
2022/07/01 01:09:16;;;;;;;13.43;8.80;;;;;;;22.22;73.72;100826.38;5032611;28;20057;-51
2022/07/01 01:11:51;;;;;;;12.98;8.30;;;;;;;22.21;73.79;100814.97;5032007;28;20085;-50
2022/07/01 01:17:05;;;;;;;12.32;7.25;;;;;;;22.18;73.85;100835.41;5032296;28;20092;-52
2022/07/01 01:19:33;;;;;;;14.95;8.13;;;;;;;22.14;74.10;100833.88;5031897;28;20061;-52
2022/07/01 01:22:03;;;;;;;11.55;6.68;;;;;;;22.09;74.16;100833.28;5033598;28;20068;-51
2022/07/01 01:24:34;;;;;;;12.75;7.25;;;;;;;22.06;74.33;100836.09;5032380;28;20057;-52
2022/07/01 01:27:05;;;;;;;10.05;6.95;;;;;;;22.02;74.35;100830.94;5035117;28;20045;-54
2022/07/01 01:29:34;;;;;;;16.02;8.27;;;;;;;22.01;74.51;100844.22;5034247;28;20061;-52
2022/07/01 01:32:03;;;;;;;12.48;7.20;;;;;;;21.98;74.63;100854.97;5034305;28;20060;-51
2022/07/01 01:34:34;;;;;;;9.55;6.32;;;;;;;21.95;74.77;100845.41;5015148;28;20057;-53
2022/07/01 01:37:04;;;;;;;10.10;7.53;;;;;;;21.94;74.75;100843.72;5018700;28;20103;-53
2022/07/01 01:39:36;;;;;;;11.85;7.35;;;;;;;21.92;74.88;100845.59;5035136;28;20140;-53
2022/07/01 01:42:11;;;;;;;12.63;8.43;;;;;;;21.91;74.83;100854.44;5034687;28;20532;-51
2022/07/01 01:44:42;;;;;;;11.48;7.40;;;;;;;21.89;74.98;100850.19;5034950;28;20049;-51
2022/07/01 01:47:11;;;;;;;13.70;7.88;;;;;;;21.89;75.01;100845.75;5034960;28;20056;-54
2022/07/01 01:49:41;;;;;;;13.35;7.43;;;;;;;21.89;75.03;100845.75;5034588;28;20480;-54
2022/07/01 01:52:18;;;;;;;12.13;6.85;;;;;;;21.89;74.89;100842.25;5033877;28;20060;-51
2022/07/01 01:54:46;;;;;;;14.55;7.95;;;;;;;21.88;75.08;100844.03;5034333;28;20745;-51
2022/07/01 01:57:16;;;;;;;12.85;8.30;;;;;;;21.87;74.94;100842.34;5033899;28;20060;-51
2022/07/01 01:59:44;;;;;;;16.10;8.63;;;;;;;21.87;75.01;100844.13;5034472;28;20064;-51
2022/07/01 02:02:13;;;;;;;13.73;8.15;;;;;;;21.87;75.03;100842.34;5034376;28;20053;-54
2022/07/01 02:04:44;;;;;;;13.80;8.07;;;;;;;21.87;75.02;100847.63;5034451;28;20056;-53
2022/07/01 02:07:22;;;;;;;13.50;8.32;;;;;;;21.88;74.97;100851.97;5034276;28;20136;-54
2022/07/01 02:09:53;;;;;;;15.90;8.60;;;;;;;21.90;74.99;100849.25;5033583;28;20057;-50
2022/07/01 02:12:21;;;;;;;14.32;7.88;;;;;;;21.92;75.02;100850.00;5034250;28;20136;-50
2022/07/01 02:14:51;;;;;;;16.00;9.10;;;;;;;21.94;74.98;100849.00;5033548;28;20059;-50
2022/07/01 02:17:22;;;;;;;16.63;8.68;;;;;;;21.94;74.91;100854.25;5033932;28;20042;-53
2022/07/01 02:19:52;;;;;;;13.98;7.25;;;;;;;21.96;74.90;100856.81;5031939;28;20533;-52
2022/07/01 02:22:35;;;;;;;19.33;8.35;;;;;;;21.97;74.74;100880.50;5031688;28;20084;-52
2022/07/01 02:25:05;;;;;;;12.80;8.52;;;;;;;21.97;74.95;100872.56;5033736;28;20084;-52
2022/07/01 02:27:33;;;;;;;13.45;7.47;;;;;;;22.01;74.94;100874.13;5034217;28;20110;-53
2022/07/01 02:30:02;;;;;;;12.10;8.40;;;;;;;22.04;74.85;100871.34;5033767;28;20061;-51
2022/07/01 02:32:32;;;;;;;15.23;8.45;;;;;;;22.08;74.73;100871.19;5034214;28;20065;-54
2022/07/01 02:35:02;;;;;;;13.02;8.23;;;;;;;22.09;74.87;100867.59;5033610;28;20056;-51
2022/07/01 02:37:33;;;;;;;13.38;8.68;;;;;;;22.09;74.78;100863.19;5033300;28;20081;-55
2022/07/01 02:40:04;;;;;;;14.63;8.38;;;;;;;22.10;74.65;100864.88;5034113;28;20049;-56
2022/07/01 02:42:34;;;;;;;14.48;8.00;;;;;;;22.13;74.66;100853.31;5034022;28;20100;-53
2022/07/01 02:45:03;;;;;;;16.15;8.98;;;;;;;22.13;74.56;100854.16;5033910;28;20045;-56
2022/07/01 02:47:42;;;;;;;14.77;8.07;;;;;;;22.15;74.53;100851.44;5028336;28;20107;-53
2022/07/01 02:50:14;;;;;;;12.05;8.43;;;;;;;22.13;74.50;100853.31;5033948;28;20135;-54
2022/07/01 02:52:56;;;;;;;14.85;7.47;;;;;;;22.13;74.42;100848.03;5031690;28;20052;-52
2022/07/01 02:55:24;;;;;;;16.73;8.80;;;;;;;22.11;74.47;100848.09;5033341;28;20418;-53
2022/07/01 02:57:52;;;;;;;13.10;8.10;;;;;;;22.11;74.67;100844.59;5014942;28;20046;-52
2022/07/01 03:00:22;;;;;;;14.57;8.68;;;;;;;22.10;74.69;100832.34;5033486;28;20068;-53
2022/07/01 03:02:49;;;;;;;16.80;8.23;;;;;;;22.10;74.68;100833.19;5033201;28;20055;-54
2022/07/01 03:05:17;;;;;;;15.55;8.82;;;;;;;22.11;74.64;100834.06;5032093;28;20119;-53
2022/07/01 03:07:59;;;;;;;13.05;8.10;;;;;;;22.10;74.43;100827.91;5033330;28;20049;-52
2022/07/01 03:13:09;;;;;;;13.52;9.18;;;;;;;22.09;74.62;100814.81;5033341;28;20366;-52
2022/07/01 03:15:38;;;;;;;15.18;8.18;;;;;;;22.10;74.54;100811.22;5031550;28;20386;-52
2022/07/01 03:18:18;;;;;;;16.00;8.48;;;;;;;22.11;74.60;100807.66;5033296;28;20053;-52
2022/07/01 03:20:48;;;;;;;13.35;8.43;;;;;;;22.11;74.71;100803.22;5033014;28;20479;-53
2022/07/01 03:23:32;;;;;;;16.30;8.45;;;;;;;22.14;74.54;100796.94;5033149;28;20057;-53
2022/07/01 03:26:00;;;;;;;13.07;7.97;;;;;;;22.15;74.51;100798.63;5033392;28;20053;-56
2022/07/01 03:28:31;;;;;;;11.95;7.57;;;;;;;22.15;74.50;100801.28;5033344;28;20068;-55
2022/07/01 03:30:59;;;;;;;14.38;8.50;;;;;;;22.19;74.45;100794.88;5032726;28;20462;-54
2022/07/01 03:33:29;;;;;;;13.50;8.80;;;;;;;22.20;74.20;100801.88;5027975;28;20087;-54
2022/07/01 03:35:59;;;;;;;14.77;8.27;;;;;;;22.20;74.40;100805.34;5032720;28;20065;-52
2022/07/01 03:38:43;;;;;;;11.18;8.20;;;;;;;22.21;74.30;100799.13;5032825;28;20133;-52
2022/07/01 03:41:11;;;;;;;11.38;8.07;;;;;;;22.21;74.33;100791.22;5033173;28;20128;-56
2022/07/01 03:43:41;;;;;;;13.80;8.00;;;;;;;22.24;74.30;100790.19;5032090;28;20111;-52
2022/07/01 03:46:08;;;;;;;14.30;8.30;;;;;;;22.25;74.18;100779.53;5031972;28;20417;-52
2022/07/01 03:48:38;;;;;;;10.18;7.60;;;;;;;22.27;74.24;100782.09;5033016;28;20068;-52
2022/07/01 03:51:08;;;;;;;10.43;7.28;;;;;;;22.28;74.32;100779.38;5032687;28;20819;-55
2022/07/01 03:56:23;;;;;;;13.82;7.63;;;;;;;22.33;74.00;100797.59;5032788;28;20099;-52
2022/07/01 03:58:51;;;;;;;8.65;6.38;;;;;;;22.37;73.87;100796.47;5031357;28;20060;-56
2022/07/01 04:01:21;;;;;;;10.63;6.63;;;;;;;22.40;73.50;100803.41;5031726;28;20132;-52
2022/07/01 04:03:49;;;;;;;10.30;6.35;;;;;;;22.43;73.33;100804.09;5031668;28;20053;-54
2022/07/01 04:06:25;;;;;;;11.57;7.35;;;;;;;22.45;73.11;100802.22;5032588;28;20054;-52
2022/07/01 04:08:54;;;;;;;13.93;7.25;;;;;;;22.47;72.99;100796.84;5032651;28;20057;-54
2022/07/01 04:11:22;;;;;;;12.68;7.00;;;;;;;22.48;72.92;100802.03;5028332;28;20058;-56
2022/07/01 04:13:58;;;;;;;16.75;8.75;;;;;;;22.49;72.73;100802.88;5020844;28;20056;-54
2022/07/01 04:16:26;;;;;;;11.73;7.03;;;;;;;22.48;72.86;100802.03;5029596;28;20058;-54
2022/07/01 04:18:56;;;;;;;10.52;6.57;;;;;;;22.51;72.77;100804.50;5032700;28;20079;-55
2022/07/01 04:24:16;;;;;;;12.65;8.13;;;;;;;22.57;72.47;100803.31;5032429;28;20114;-52
2022/07/01 04:26:46;;;;;;;10.88;7.45;;;;;;;22.67;72.41;100807.97;5032824;28;20100;-55
2022/07/01 04:29:15;;;;;;;15.13;7.22;;;;;;;22.83;72.10;100805.31;5032680;28;20114;-55
2022/07/01 04:31:51;;;;;;;10.38;6.80;;;;;;;23.01;71.55;100798.13;5031831;28;20475;-56
2022/07/01 04:34:18;;;;;;;11.13;7.03;;;;;;;23.19;71.21;100794.38;5027634;28;20053;-56
2022/07/01 04:36:46;;;;;;;15.30;6.90;;;;;;;23.42;70.85;100793.03;5032531;28;20088;-53
2022/07/01 04:39:17;;;;;;;11.90;6.57;;;;;;;23.68;70.17;100801.19;5032597;28;20069;-53
2022/07/01 04:42:04;;;;;;;10.75;6.88;;;;;;;23.92;69.64;100797.84;5032251;28;20056;-54
2022/07/01 04:44:41;;;;;;;11.13;6.25;;;;;;;24.23;68.91;100798.56;5036097;28;20057;-53
2022/07/01 04:47:09;;;;;;;12.48;6.43;;;;;;;24.51;67.94;100787.94;5035166;28;20059;-55
2022/07/01 04:49:38;;;;;;;7.90;6.20;;;;;;;24.79;66.69;100786.09;5020184;28;20063;-52
2022/07/01 04:52:09;;;;;;;9.43;6.13;;;;;;;25.07;66.03;100782.47;5035784;28;20059;-53
2022/07/01 04:54:48;;;;;;;7.63;5.47;;;;;;;25.38;65.01;100783.88;5035873;28;20119;-52
2022/07/01 04:57:16;;;;;;;9.50;5.78;;;;;;;25.62;63.91;100787.50;5035604;28;20450;-55
2022/07/01 04:59:43;;;;;;;6.95;5.43;;;;;;;25.87;62.52;100780.47;5035807;28;20450;-53
2022/07/01 05:04:51;;;;;;;12.68;6.47;;;;;;;26.37;60.72;100775.03;5036041;28;20061;-52
2022/07/01 05:07:32;;;;;;;7.60;5.43;;;;;;;26.59;59.85;100784.94;5034628;28;20056;-52
2022/07/01 05:10:01;;;;;;;7.28;5.65;;;;;;;26.79;59.17;100780.78;5035171;28;20049;-52
2022/07/01 05:12:31;;;;;;;6.90;4.75;;;;;;;26.97;58.45;100787.38;5035107;28;20045;-52
2022/07/01 05:15:01;;;;;;;9.43;4.82;;;;;;;27.18;57.74;100781.44;5035187;28;20049;-51
2022/07/01 05:22:58;;;;;;;7.22;4.65;;;;;;;27.87;55.73;100768.91;5035100;28;20091;-51
2022/07/01 05:25:40;;;;;;;8.82;4.68;;;;;;;28.10;54.83;100780.38;5034778;28;20475;-52
2022/07/01 05:28:07;;;;;;;8.48;4.65;;;;;;;28.28;54.26;100784.25;5035353;28;20140;-51
2022/07/01 05:30:43;;;;;;;7.80;5.78;;;;;;;28.48;53.71;100788.78;5035027;28;20049;-55
2022/07/01 05:33:11;;;;;;;8.20;5.32;;;;;;;28.72;53.44;100788.59;5034064;28;20133;-52
2022/07/01 05:35:42;;;;;;;7.57;4.90;;;;;;;28.94;52.83;100784.13;5034946;28;20108;-54
2022/07/01 05:38:09;;;;;;;9.77;5.65;;;;;;;29.14;52.34;100784.16;5034362;28;20502;-55
2022/07/01 05:40:37;;;;;;;8.27;5.05;;;;;;;29.35;51.61;100788.63;5034899;28;20497;-54
2022/07/01 05:43:06;;;;;;;7.70;4.75;;;;;;;29.52;51.49;100788.88;5034622;28;20471;-52
2022/07/01 05:45:33;;;;;;;9.50;5.43;;;;;;;29.69;50.96;100795.44;5035114;28;20045;-55
2022/07/01 05:48:11;;;;;;;11.18;7.50;;;;;;;29.82;51.03;100813.91;5034984;28;20363;-54
2022/07/01 05:50:48;;;;;;;17.15;6.72;;;;;;;29.85;51.87;100821.66;5034843;28;20045;-55
2022/07/01 05:53:18;;;;;;;11.23;7.13;;;;;;;29.90;52.19;100830.13;5032756;28;20045;-52
2022/07/01 05:56:00;;;;;;;11.13;7.13;;;;;;;29.92;51.85;100830.81;5034409;28;20443;-55
2022/07/01 05:58:30;;;;;;;11.93;7.30;;;;;;;29.91;51.91;100833.63;5034706;28;20054;-54
2022/07/01 06:01:00;;;;;;;10.98;7.68;;;;;;;29.92;51.91;100828.16;5034636;28;20517;-55
2022/07/01 06:06:11;;;;;;;12.07;7.28;;;;;;;30.00;51.78;100841.69;5031038;28;20053;-54
2022/07/01 06:08:47;;;;;;;11.82;7.10;;;;;;;30.12;51.67;100834.44;5042115;28;20059;-54
2022/07/01 06:11:17;;;;;;;10.48;6.13;;;;;;;30.19;51.85;100824.91;5047032;28;20056;-51
2022/07/01 06:13:45;;;;;;;12.57;6.25;;;;;;;30.28;51.80;100825.91;5030806;28;20111;-52
2022/07/01 06:16:13;;;;;;;16.00;6.43;;;;;;;30.35;51.62;100829.72;5033731;28;20065;-53
2022/07/01 06:18:43;;;;;;;13.25;6.18;;;;;;;30.43;51.24;100825.38;5033297;28;20053;-52
2022/07/01 06:21:14;;;;;;;9.88;6.03;;;;;;;30.61;51.25;100820.22;5028585;28;20056;-54
2022/07/01 06:23:42;;;;;;;9.05;6.18;;;;;;;30.79;50.67;100820.38;5031836;28;20081;-53
2022/07/01 06:26:12;;;;;;;9.88;6.88;;;;;;;30.83;49.83;100819.13;5034188;28;20063;-53
2022/07/01 06:28:47;;;;;;;12.27;6.60;;;;;;;30.85;49.49;100827.00;5033644;28;20470;-51
2022/07/01 06:31:15;;;;;;;15.30;7.05;;;;;;;31.00;49.79;100826.41;5034284;28;20053;-53
2022/07/01 06:33:42;;;;;;;9.73;6.60;;;;;;;31.19;49.39;100814.88;5029101;28;20054;-52
2022/07/01 06:36:13;;;;;;;13.13;6.07;;;;;;;31.35;48.93;100809.78;5019635;28;20080;-55
2022/07/01 06:38:44;;;;;;;9.25;5.57;;;;;;;31.50;48.52;100806.63;5030608;28;20049;-55
2022/07/01 06:41:30;;;;;;;11.68;6.85;;;;;;;31.64;48.00;100809.66;5047602;28;20045;-52
2022/07/01 06:44:05;;;;;;;14.00;6.22;;;;;;;31.77;47.85;100812.06;5029121;28;20049;-55
2022/07/01 06:46:33;;;;;;;7.35;5.85;;;;;;;31.92;47.71;100813.25;5036457;28;20053;-53
2022/07/01 06:49:00;;;;;;;22.42;7.22;;;;;;;32.10;47.00;100812.47;5033151;28;20144;-55
2022/07/01 06:51:31;;;;;;;28.02;7.47;;;;;;;32.24;46.51;100811.94;5033427;28;20054;-52
2022/07/01 06:56:41;;;;;;;8.68;5.95;;;;;;;32.45;45.76;100815.25;5023378;28;20057;-53
2022/07/01 06:59:22;;;;;;;10.23;5.45;;;;;;;32.55;45.23;100810.66;5024970;28;20053;-52
2022/07/01 07:02:16;;;;;;;11.20;6.32;;;;;;;32.72;44.32;100805.41;5030749;28;20064;-56
2022/07/01 07:04:56;;;;;;;9.68;4.75;;;;;;;32.87;44.02;100809.31;5028807;28;20046;-52
2022/07/01 07:07:27;;;;;;;7.47;5.50;;;;;;;32.97;43.86;100804.69;5031931;28;20419;-54
2022/07/01 07:09:56;;;;;;;29.20;7.43;;;;;;;33.13;44.23;100804.78;5032788;28;20080;-51
2022/07/01 07:12:27;;;;;;;16.25;5.70;;;;;;;33.21;43.09;100807.53;5016298;28;20057;-53
2022/07/01 07:15:04;;;;;;;10.95;5.65;;;;;;;33.28;42.69;100805.06;5031632;28;20057;-51
2022/07/01 07:17:32;;;;;;;7.45;4.80;;;;;;;33.36;41.73;100805.16;5025465;28;20049;-51
2022/07/01 07:20:02;;;;;;;6.00;3.90;;;;;;;33.45;41.10;100803.38;5031230;28;20053;-54
2022/07/01 07:22:34;;;;;;;6.82;4.65;;;;;;;33.51;41.05;100808.09;5032022;28;20053;-51
2022/07/01 07:25:04;;;;;;;11.95;4.78;;;;;;;33.63;41.13;100806.81;5031385;28;20706;-51
2022/07/01 07:27:32;;;;;;;10.88;4.47;;;;;;;33.68;40.58;100800.97;5032415;28;20071;-53
2022/07/01 07:30:13;;;;;;;7.03;4.28;;;;;;;33.72;39.97;100805.84;5032389;28;20570;-52
2022/07/01 07:32:40;;;;;;;7.10;3.75;;;;;;;33.69;40.26;100816.94;5032479;28;20081;-52
2022/07/01 07:35:11;;;;;;;12.25;4.85;;;;;;;33.64;40.11;100813.88;5030572;28;20073;-55
2022/07/01 07:37:47;;;;;;;8.88;4.25;;;;;;;33.65;40.16;100810.19;5027436;28;20033;-51
2022/07/01 07:40:18;;;;;;;7.10;4.65;;;;;;;33.59;40.35;100810.84;5029660;28;20429;-50
2022/07/01 07:42:55;;;;;;;9.32;4.50;;;;;;;33.50;40.61;100817.16;5031626;28;20140;-51
2022/07/01 07:45:37;;;;;;;8.60;4.53;;;;;;;33.33;40.09;100816.22;5030420;28;20057;-50
2022/07/01 07:48:08;;;;;;;7.68;4.55;;;;;;;33.15;40.56;100808.16;5032016;28;20060;-51
2022/07/01 07:50:37;;;;;;;13.57;5.30;;;;;;;33.12;40.24;100808.47;5031985;28;20057;-52
2022/07/01 07:53:08;;;;;;;7.20;4.50;;;;;;;33.11;40.55;100804.09;5030752;28;20045;-50
2022/07/01 07:55:38;;;;;;;24.98;6.50;;;;;;;33.18;40.47;100807.84;5030588;28;20123;-57
2022/07/01 07:58:09;;;;;;;8.73;4.85;;;;;;;33.21;40.81;100818.28;5030546;28;20487;-49
2022/07/01 08:00:57;;;;;;;5.80;4.38;;;;;;;33.34;40.32;100815.22;5031178;28;20101;-52
2022/07/01 08:03:25;;;;;;;8.80;5.40;;;;;;;33.35;40.62;100819.59;5029316;28;20041;-49
2022/07/01 08:05:53;;;;;;;7.40;4.57;;;;;;;33.32;40.43;100824.44;5031029;28;20527;-50
2022/07/01 08:08:21;;;;;;;10.13;5.45;;;;;;;33.15;40.78;100810.84;5031685;28;20049;-52
2022/07/01 08:10:48;;;;;;;10.60;5.85;;;;;;;32.97;40.62;100820.78;5030779;28;20060;-51
2022/07/01 08:13:15;;;;;;;8.02;5.32;;;;;;;32.87;41.16;100820.88;5029268;28;20053;-53
2022/07/01 08:15:59;;;;;;;9.15;5.45;;;;;;;32.92;41.17;100812.38;5030156;28;20089;-51
2022/07/01 08:18:26;;;;;;;9.18;5.47;;;;;;;33.03;41.74;100809.44;5033913;28;20080;-53
2022/07/01 08:20:56;;;;;;;11.20;5.72;;;;;;;33.20;41.67;100803.16;5036029;28;20056;-51
2022/07/01 08:23:27;;;;;;;9.70;5.65;;;;;;;33.41;41.11;100810.06;5035211;28;20041;-51
2022/07/01 08:25:57;;;;;;;9.82;5.07;;;;;;;33.58;40.63;100803.78;5037229;28;20050;-53
2022/07/01 08:28:24;;;;;;;6.22;5.20;;;;;;;33.70;40.26;100807.84;5035127;28;20385;-55
2022/07/01 08:31:06;;;;;;;9.13;5.60;;;;;;;33.85;39.72;100809.00;5035257;28;20049;-52
2022/07/01 08:33:33;;;;;;;12.32;6.60;;;;;;;34.00;39.29;100803.00;5034411;28;20481;-51
2022/07/01 08:36:00;;;;;;;9.60;5.57;;;;;;;34.12;38.95;100799.00;5036287;28;20144;-53
2022/07/01 08:38:27;;;;;;;9.23;5.93;;;;;;;34.30;38.89;100799.69;5038462;28;20046;-52
2022/07/01 08:41:01;;;;;;;12.82;5.70;;;;;;;34.50;39.10;100803.00;5033664;28;20045;-52
2022/07/01 08:43:31;;;;;;;8.35;5.88;;;;;;;34.64;39.29;100805.00;5033963;28;20057;-54
2022/07/01 08:46:13;;;;;;;10.40;5.97;;;;;;;34.78;39.00;100806.19;5034263;28;20108;-52
2022/07/01 08:48:45;;;;;;;8.32;6.20;;;;;;;34.88;38.94;100798.00;5033442;28;20045;-54
2022/07/01 08:51:15;;;;;;;10.82;5.93;;;;;;;34.94;39.38;100808.09;5031359;28;20077;-53
2022/07/01 08:53:42;;;;;;;6.57;5.53;;;;;;;35.00;38.92;100808.25;5031548;28;20076;-55
2022/07/01 08:58:56;;;;;;;9.05;6.38;;;;;;;35.53;38.18;100792.53;5033032;28;20052;-52
2022/07/01 09:01:26;;;;;;;11.07;6.80;;;;;;;35.92;37.50;100798.00;5032828;28;20128;-51
2022/07/01 09:04:15;;;;;;;10.90;6.15;;;;;;;35.94;37.12;100795.97;5034524;28;20050;-52
2022/07/01 09:06:44;;;;;;;13.82;6.90;;;;;;;35.59;38.05;100794.53;5034075;28;20098;-51
2022/07/01 09:09:17;;;;;;;9.98;5.70;;;;;;;35.38;37.90;100800.47;5033236;28;20350;-47
2022/07/01 09:11:54;;;;;;;11.88;5.78;;;;;;;35.27;38.96;100803.50;5032265;28;20060;-50
2022/07/01 09:14:24;;;;;;;11.07;6.35;;;;;;;35.26;38.82;100801.81;5034073;28;20062;-50
2022/07/01 09:17:04;;;;;;;7.72;6.20;;;;;;;35.23;38.36;100796.78;5030346;28;20088;-54
2022/07/01 09:19:34;;;;;;;9.63;6.90;;;;;;;35.13;38.93;100801.50;5029447;28;20077;-52
2022/07/01 09:22:06;;;;;;;13.63;7.10;;;;;;;35.07;39.16;100803.88;5033668;28;20525;-55
2022/07/01 09:24:42;;;;;;;12.07;6.40;;;;;;;34.98;39.55;100802.19;5033320;28;20049;-56
2022/07/01 09:27:18;;;;;;;8.57;6.10;;;;;;;34.94;39.42;100800.84;5032396;28;20059;-51
2022/07/01 09:29:48;;;;;;;8.55;6.43;;;;;;;34.93;39.68;100801.88;5032847;28;20135;-55
2022/07/01 09:32:22;;;;;;;9.73;6.53;;;;;;;34.89;39.73;100800.53;5032866;28;20057;-50
2022/07/01 09:34:51;;;;;;;8.77;6.90;;;;;;;34.79;40.00;100806.03;5033215;28;20049;-52
2022/07/01 09:37:27;;;;;;;7.68;6.32;;;;;;;34.66;40.19;100794.06;5034652;28;20684;-48
2022/07/01 09:39:57;;;;;;;8.38;6.65;;;;;;;34.56;40.86;100794.25;5029622;28;20601;-49
2022/07/01 09:42:34;;;;;;;10.60;6.78;;;;;;;34.44;41.04;100806.34;5032570;28;20052;-48
2022/07/01 09:45:09;;;;;;;8.45;6.30;;;;;;;34.28;41.49;100790.97;5034934;28;20140;-48
2022/07/01 09:47:43;;;;;;;10.35;6.32;;;;;;;34.10;41.95;100799.16;5033782;28;20065;-52
2022/07/01 09:50:11;;;;;;;11.73;6.80;;;;;;;33.85;42.67;100800.09;5032208;28;20049;-52
2022/07/01 09:52:39;;;;;;;10.40;7.05;;;;;;;33.49;43.04;100794.81;5031398;28;20053;-52
2022/07/01 09:55:10;;;;;;;11.30;7.00;;;;;;;33.15;43.74;100800.09;5034113;28;20106;-49
2022/07/01 09:57:41;;;;;;;11.20;7.40;;;;;;;32.85;44.54;100784.47;5031932;28;20060;-55
2022/07/01 10:00:09;;;;;;;17.90;7.82;;;;;;;32.69;45.21;100797.69;5027938;28;20167;-50
2022/07/01 10:02:35;;;;;;;16.42;8.20;;;;;;;32.51;45.83;100803.06;5034743;28;20156;-47
2022/07/01 10:05:09;;;;;;;9.38;7.05;;;;;;;32.40;46.18;100801.44;5030526;28;20482;-54
2022/07/01 10:07:55;;;;;;;10.68;6.88;;;;;;;32.27;46.53;100817.91;5028163;28;20477;-49
2022/07/01 10:10:37;;;;;;;11.80;7.72;;;;;;;32.11;47.28;100823.03;5030431;28;20041;-49
2022/07/01 10:13:10;;;;;;;11.27;7.75;;;;;;;31.89;48.11;100813.56;5030390;28;20057;-48
2022/07/01 10:15:41;;;;;;;19.33;11.10;;;;;;;29.84;100.00;100803.94;5031978;28;20120;-54
2022/07/01 10:18:23;;;;;;;14.25;10.27;;;;;;;28.42;100.00;100817.78;5034747;28;20053;-52
2022/07/01 10:20:54;;;;;;;11.25;9.70;;;;;;;27.42;100.00;100823.91;5030834;28;20053;-47
2022/07/01 10:23:25;;;;;;;16.88;11.38;;;;;;;26.85;100.00;100837.97;5030903;28;20389;-47
2022/07/01 10:25:53;;;;;;;12.73;10.52;;;;;;;26.59;100.00;100842.59;5031457;28;20129;-48
2022/07/01 10:28:26;;;;;;;14.18;12.05;;;;;;;26.45;100.00;100832.09;5030433;28;20136;-53
2022/07/01 10:30:56;;;;;;;14.75;11.77;;;;;;;26.53;100.00;100827.06;5029090;28;20060;-49
2022/07/01 10:33:45;;;;;;;16.33;12.30;;;;;;;26.82;100.00;100828.44;5026978;28;20049;-54
2022/07/01 10:36:29;;;;;;;16.38;11.38;;;;;;;26.96;100.00;100830.88;5030429;28;20088;-47
2022/07/01 10:39:27;;;;;;;13.18;11.15;;;;;;;27.19;100.00;100809.72;5030637;28;20115;-55
2022/07/01 10:42:09;;;;;;;16.83;10.60;;;;;;;27.44;100.00;100806.00;5031720;28;20151;-48
2022/07/01 10:45:00;;;;;;;17.42;12.65;;;;;;;27.66;100.00;100814.06;5019184;28;20081;-52
2022/07/01 10:47:30;;;;;;;15.23;11.20;;;;;;;27.88;100.00;100810.53;5030974;28;20060;-51
2022/07/01 10:50:00;;;;;;;13.52;11.73;;;;;;;28.12;99.82;100827.25;5031655;28;20478;-56
2022/07/01 10:53:01;;;;;;;14.95;12.60;;;;;;;28.46;90.13;100854.72;5029785;28;20073;-52
2022/07/01 10:55:51;;;;;;;17.33;12.15;;;;;;;28.68;84.90;100856.50;5030034;28;20166;-57
2022/07/01 10:58:35;;;;;;;18.77;12.18;;;;;;;28.85;80.93;100841.78;5029966;28;20053;-55
2022/07/01 11:01:04;;;;;;;9.85;8.82;;;;;;;29.13;74.07;100814.47;5030470;28;20059;-52
2022/07/01 11:03:36;;;;;;;8.88;7.20;;;;;;;29.42;67.11;100806.66;5031687;28;20107;-53
2022/07/01 11:06:05;;;;;;;9.32;7.70;;;;;;;29.63;63.60;100797.78;5032509;28;20137;-52
2022/07/01 11:08:35;;;;;;;11.52;7.57;;;;;;;29.77;61.16;100792.09;5032393;28;20132;-52
2022/07/01 11:11:05;;;;;;;10.30;7.05;;;;;;;29.90;58.40;100792.72;5031739;28;20051;-57
2022/07/01 11:13:35;;;;;;;19.08;7.50;;;;;;;30.02;56.04;100798.81;5032435;28;20073;-49
2022/07/01 11:16:09;;;;;;;11.05;6.07;;;;;;;30.07;54.31;100794.75;5030963;28;20389;-54
2022/07/01 11:18:43;;;;;;;8.53;5.97;;;;;;;30.13;53.65;100794.19;5029803;28;20053;-53
2022/07/01 11:21:21;;;;;;;6.70;5.60;;;;;;;30.29;53.81;100776.81;5032194;28;20076;-49
2022/07/01 11:24:02;;;;;;;8.32;5.30;;;;;;;30.44;51.61;100792.28;5033072;28;20065;-49
2022/07/01 11:26:30;;;;;;;10.98;6.00;;;;;;;30.48;51.25;100786.66;5031417;28;20049;-50
2022/07/01 11:29:00;;;;;;;11.88;6.60;;;;;;;30.53;51.67;100795.97;5031477;28;20053;-57
2022/07/01 11:31:35;;;;;;;9.68;6.18;;;;;;;30.54;51.06;100770.91;5032377;28;20049;-53
2022/07/01 11:34:04;;;;;;;10.95;6.00;;;;;;;30.49;51.22;100773.16;5031865;28;20417;-55
2022/07/01 11:39:32;;;;;;;6.40;5.50;;;;;;;30.43;51.00;100779.06;5032193;28;20370;-56
2022/07/01 11:42:04;;;;;;;10.32;6.57;;;;;;;30.40;51.43;100776.66;5032097;28;20058;-54
2022/07/01 11:44:34;;;;;;;9.35;5.60;;;;;;;30.41;51.37;100776.53;5031690;28;20381;-49
2022/07/01 11:47:04;;;;;;;7.72;5.32;;;;;;;30.45;51.45;100761.06;5030487;28;20471;-54
2022/07/01 11:49:36;;;;;;;9.32;5.40;;;;;;;30.52;51.21;100764.84;5031485;28;20049;-49
2022/07/01 11:52:10;;;;;;;10.88;6.20;;;;;;;30.58;51.28;100756.25;5026092;28;20136;-52
2022/07/01 11:54:51;;;;;;;7.00;6.30;;;;;;;30.64;50.81;100739.69;5025182;28;20147;-54
2022/07/01 11:57:23;;;;;;;6.40;4.80;;;;;;;30.74;50.94;100734.34;5030296;28;20092;-54
2022/07/01 11:59:57;;;;;;;19.05;7.00;;;;;;;30.84;50.65;100720.94;5035443;28;20374;-48
2022/07/01 12:02:34;;;;;;;12.32;5.80;;;;;;;30.90;50.22;100720.38;5030344;28;20470;-53
2022/07/01 12:05:03;;;;;;;9.27;6.28;;;;;;;30.95;50.33;100723.44;5033387;28;20053;-54
2022/07/01 12:07:39;;;;;;;11.80;5.53;;;;;;;31.03;50.39;100710.19;5033236;28;20049;-49
2022/07/01 12:10:10;;;;;;;8.32;5.93;;;;;;;31.13;50.02;100715.50;5031917;28;20065;-55
2022/07/01 12:12:37;;;;;;;6.95;5.80;;;;;;;31.15;50.15;100711.72;5043121;28;20072;-51
2022/07/01 12:15:09;;;;;;;7.18;5.82;;;;;;;31.19;50.09;100702.41;5035839;28;20057;-50
2022/07/01 12:17:40;;;;;;;8.05;5.90;;;;;;;31.24;49.98;100700.16;5030008;28;20133;-53